sensor_id;sensor_type;location;lat;lon;timestamp;P1;durP1;ratioP1;P2;durP2;ratioP2
74415;SDS011;62850;42.428;25.618;2023-03-01T00:01:17;1.42;;;0.75;;
74415;SDS011;62850;42.428;25.618;2023-03-01T00:03:45;1.85;;;0.80;;
74415;SDS011;62850;42.428;25.618;2023-03-01T00:06:10;1.88;;;0.80;;
74415;SDS011;62850;42.428;25.618;2023-03-01T00:08:36;1.52;;;0.77;;
74415;SDS011;62850;42.428;25.618;2023-03-01T00:13:47;1.77;;;0.80;;
74415;SDS011;62850;42.428;25.618;2023-03-01T00:16:19;2.40;;;0.95;;
74415;SDS011;62850;42.428;25.618;2023-03-01T00:18:46;2.00;;;0.80;;
74415;SDS011;62850;42.428;25.618;2023-03-01T00:21:12;2.88;;;0.60;;
74415;SDS011;62850;42.428;25.618;2023-03-01T00:23:38;1.30;;;0.77;;
74415;SDS011;62850;42.428;25.618;2023-03-01T00:26:11;3.00;;;0.60;;
74415;SDS011;62850;42.428;25.618;2023-03-01T00:28:38;1.10;;;0.60;;
74415;SDS011;62850;42.428;25.618;2023-03-01T00:31:05;2.53;;;0.88;;
74415;SDS011;62850;42.428;25.618;2023-03-01T00:33:31;1.40;;;0.70;;
74415;SDS011;62850;42.428;25.618;2023-03-01T00:36:00;1.45;;;0.70;;
74415;SDS011;62850;42.428;25.618;2023-03-01T00:38:26;1.88;;;0.50;;
74415;SDS011;62850;42.428;25.618;2023-03-01T00:40:52;2.03;;;0.70;;
74415;SDS011;62850;42.428;25.618;2023-03-01T00:43:17;1.67;;;0.70;;
74415;SDS011;62850;42.428;25.618;2023-03-01T00:45:43;0.88;;;0.60;;
74415;SDS011;62850;42.428;25.618;2023-03-01T00:48:08;1.52;;;0.70;;
74415;SDS011;62850;42.428;25.618;2023-03-01T00:50:34;1.75;;;0.85;;
74415;SDS011;62850;42.428;25.618;2023-03-01T00:52:59;2.08;;;0.88;;
74415;SDS011;62850;42.428;25.618;2023-03-01T00:55:25;1.33;;;0.60;;
74415;SDS011;62850;42.428;25.618;2023-03-01T00:57:54;1.80;;;0.70;;
74415;SDS011;62850;42.428;25.618;2023-03-01T01:00:19;3.15;;;0.90;;
74415;SDS011;62850;42.428;25.618;2023-03-01T01:02:45;2.00;;;0.90;;
74415;SDS011;62850;42.428;25.618;2023-03-01T01:05:11;1.83;;;0.90;;
74415;SDS011;62850;42.428;25.618;2023-03-01T01:07:37;2.10;;;0.80;;
74415;SDS011;62850;42.428;25.618;2023-03-01T01:10:03;2.10;;;0.85;;
74415;SDS011;62850;42.428;25.618;2023-03-01T01:12:29;1.95;;;0.80;;
74415;SDS011;62850;42.428;25.618;2023-03-01T01:14:54;2.88;;;1.02;;
74415;SDS011;62850;42.428;25.618;2023-03-01T01:17:20;3.10;;;1.05;;
74415;SDS011;62850;42.428;25.618;2023-03-01T01:19:45;3.05;;;1.20;;
74415;SDS011;62850;42.428;25.618;2023-03-01T01:22:11;3.70;;;1.10;;
74415;SDS011;62850;42.428;25.618;2023-03-01T01:24:36;2.63;;;1.05;;
74415;SDS011;62850;42.428;25.618;2023-03-01T01:27:02;2.47;;;1.00;;
74415;SDS011;62850;42.428;25.618;2023-03-01T01:29:27;2.70;;;1.20;;
74415;SDS011;62850;42.428;25.618;2023-03-01T01:31:53;1.90;;;0.82;;
74415;SDS011;62850;42.428;25.618;2023-03-01T01:34:19;1.90;;;0.88;;
74415;SDS011;62850;42.428;25.618;2023-03-01T01:36:49;2.03;;;0.90;;
74415;SDS011;62850;42.428;25.618;2023-03-01T01:39:16;2.00;;;1.00;;
74415;SDS011;62850;42.428;25.618;2023-03-01T01:41:42;2.13;;;0.98;;
74415;SDS011;62850;42.428;25.618;2023-03-01T01:44:12;2.40;;;0.90;;
74415;SDS011;62850;42.428;25.618;2023-03-01T01:47:20;2.15;;;0.90;;
74415;SDS011;62850;42.428;25.618;2023-03-01T01:49:38;2.97;;;1.05;;
74415;SDS011;62850;42.428;25.618;2023-03-01T01:52:06;2.10;;;0.90;;
74415;SDS011;62850;42.428;25.618;2023-03-01T01:55:01;2.60;;;0.80;;
74415;SDS011;62850;42.428;25.618;2023-03-01T01:57:33;2.08;;;0.90;;
74415;SDS011;62850;42.428;25.618;2023-03-01T02:00:09;1.65;;;0.80;;
74415;SDS011;62850;42.428;25.618;2023-03-01T02:02:37;1.58;;;0.77;;
74415;SDS011;62850;42.428;25.618;2023-03-01T02:08:12;1.75;;;0.73;;
74415;SDS011;62850;42.428;25.618;2023-03-01T02:10:39;1.63;;;0.70;;
74415;SDS011;62850;42.428;25.618;2023-03-01T02:13:06;1.42;;;0.70;;
74415;SDS011;62850;42.428;25.618;2023-03-01T02:15:35;1.63;;;0.50;;
74415;SDS011;62850;42.428;25.618;2023-03-01T02:18:03;1.27;;;0.70;;
74415;SDS011;62850;42.428;25.618;2023-03-01T02:22:55;1.88;;;0.82;;
74415;SDS011;62850;42.428;25.618;2023-03-01T02:25:31;2.17;;;0.90;;
74415;SDS011;62850;42.428;25.618;2023-03-01T02:30:42;1.95;;;0.80;;
74415;SDS011;62850;42.428;25.618;2023-03-01T02:33:28;2.08;;;0.90;;
74415;SDS011;62850;42.428;25.618;2023-03-01T02:35:58;1.88;;;0.90;;
74415;SDS011;62850;42.428;25.618;2023-03-01T02:38:26;2.15;;;0.90;;
74415;SDS011;62850;42.428;25.618;2023-03-01T02:40:52;1.45;;;0.80;;
74415;SDS011;62850;42.428;25.618;2023-03-01T02:43:20;1.33;;;0.70;;
74415;SDS011;62850;42.428;25.618;2023-03-01T02:45:50;1.92;;;0.80;;
74415;SDS011;62850;42.428;25.618;2023-03-01T02:48:17;0.63;;;0.50;;
74415;SDS011;62850;42.428;25.618;2023-03-01T02:56:18;2.10;;;0.80;;
74415;SDS011;62850;42.428;25.618;2023-03-01T02:58:43;1.05;;;0.55;;
74415;SDS011;62850;42.428;25.618;2023-03-01T03:01:17;1.70;;;0.65;;
74415;SDS011;62850;42.428;25.618;2023-03-01T03:03:43;1.50;;;0.60;;
74415;SDS011;62850;42.428;25.618;2023-03-01T03:06:09;3.22;;;0.70;;
74415;SDS011;62850;42.428;25.618;2023-03-01T03:08:35;1.80;;;0.70;;
74415;SDS011;62850;42.428;25.618;2023-03-01T03:11:00;1.45;;;0.70;;
74415;SDS011;62850;42.428;25.618;2023-03-01T03:13:29;1.02;;;0.60;;
74415;SDS011;62850;42.428;25.618;2023-03-01T03:15:57;1.70;;;0.80;;
74415;SDS011;62850;42.428;25.618;2023-03-01T03:18:23;1.40;;;0.60;;
74415;SDS011;62850;42.428;25.618;2023-03-01T03:20:53;0.57;;;0.52;;
74415;SDS011;62850;42.428;25.618;2023-03-01T03:23:19;2.15;;;0.82;;
74415;SDS011;62850;42.428;25.618;2023-03-01T03:25:47;0.60;;;0.50;;
74415;SDS011;62850;42.428;25.618;2023-03-01T03:28:14;2.08;;;0.82;;
74415;SDS011;62850;42.428;25.618;2023-03-01T03:30:41;1.33;;;0.70;;
74415;SDS011;62850;42.428;25.618;2023-03-01T03:33:07;1.85;;;0.88;;
74415;SDS011;62850;42.428;25.618;2023-03-01T03:35:41;1.05;;;0.70;;
74415;SDS011;62850;42.428;25.618;2023-03-01T03:38:12;2.17;;;0.90;;
74415;SDS011;62850;42.428;25.618;2023-03-01T03:40:45;2.20;;;0.88;;
74415;SDS011;62850;42.428;25.618;2023-03-01T03:48:43;1.75;;;0.70;;
74415;SDS011;62850;42.428;25.618;2023-03-01T03:51:11;1.40;;;0.70;;
74415;SDS011;62850;42.428;25.618;2023-03-01T03:53:37;1.23;;;0.68;;
74415;SDS011;62850;42.428;25.618;2023-03-01T03:56:03;1.83;;;0.70;;
74415;SDS011;62850;42.428;25.618;2023-03-01T03:58:50;1.58;;;0.80;;
74415;SDS011;62850;42.428;25.618;2023-03-01T04:01:16;1.20;;;0.60;;
74415;SDS011;62850;42.428;25.618;2023-03-01T04:03:42;4.32;;;1.45;;
74415;SDS011;62850;42.428;25.618;2023-03-01T04:06:11;4.90;;;3.13;;
74415;SDS011;62850;42.428;25.618;2023-03-01T04:08:37;7.10;;;2.17;;
74415;SDS011;62850;42.428;25.618;2023-03-01T04:11:04;4.75;;;2.35;;
74415;SDS011;62850;42.428;25.618;2023-03-01T04:13:49;2.35;;;1.00;;
74415;SDS011;62850;42.428;25.618;2023-03-01T04:16:15;2.42;;;0.90;;
74415;SDS011;62850;42.428;25.618;2023-03-01T04:18:41;1.60;;;0.70;;
74415;SDS011;62850;42.428;25.618;2023-03-01T04:21:06;2.13;;;0.70;;
74415;SDS011;62850;42.428;25.618;2023-03-01T04:23:32;3.58;;;1.00;;
74415;SDS011;62850;42.428;25.618;2023-03-01T04:25:57;4.90;;;1.20;;
74415;SDS011;62850;42.428;25.618;2023-03-01T04:31:01;2.33;;;1.00;;
74415;SDS011;62850;42.428;25.618;2023-03-01T04:33:38;2.55;;;1.10;;
74415;SDS011;62850;42.428;25.618;2023-03-01T04:36:05;2.75;;;1.17;;
74415;SDS011;62850;42.428;25.618;2023-03-01T04:38:33;3.50;;;1.35;;
74415;SDS011;62850;42.428;25.618;2023-03-01T04:41:00;2.28;;;0.90;;
74415;SDS011;62850;42.428;25.618;2023-03-01T04:43:25;2.38;;;1.00;;
74415;SDS011;62850;42.428;25.618;2023-03-01T04:45:50;3.13;;;1.30;;
74415;SDS011;62850;42.428;25.618;2023-03-01T04:48:16;4.50;;;1.10;;
74415;SDS011;62850;42.428;25.618;2023-03-01T04:50:41;2.13;;;1.05;;
74415;SDS011;62850;42.428;25.618;2023-03-01T04:53:07;3.50;;;0.88;;
74415;SDS011;62850;42.428;25.618;2023-03-01T04:55:33;3.22;;;1.20;;
74415;SDS011;62850;42.428;25.618;2023-03-01T04:57:59;1.65;;;0.80;;
74415;SDS011;62850;42.428;25.618;2023-03-01T05:00:24;4.78;;;0.73;;
74415;SDS011;62850;42.428;25.618;2023-03-01T05:02:54;1.90;;;0.80;;
74415;SDS011;62850;42.428;25.618;2023-03-01T05:05:25;1.90;;;1.00;;
74415;SDS011;62850;42.428;25.618;2023-03-01T05:07:55;1.55;;;0.80;;
74415;SDS011;62850;42.428;25.618;2023-03-01T05:12:48;1.45;;;0.70;;
74415;SDS011;62850;42.428;25.618;2023-03-01T05:15:13;3.70;;;0.80;;
74415;SDS011;62850;42.428;25.618;2023-03-01T05:17:39;3.53;;;0.90;;
74415;SDS011;62850;42.428;25.618;2023-03-01T05:20:04;2.40;;;1.00;;
74415;SDS011;62850;42.428;25.618;2023-03-01T05:22:34;2.97;;;1.13;;
74415;SDS011;62850;42.428;25.618;2023-03-01T05:25:00;3.22;;;1.40;;
74415;SDS011;62850;42.428;25.618;2023-03-01T05:27:26;4.32;;;1.52;;
74415;SDS011;62850;42.428;25.618;2023-03-01T05:29:51;3.13;;;1.30;;
74415;SDS011;62850;42.428;25.618;2023-03-01T05:32:17;3.92;;;1.20;;
74415;SDS011;62850;42.428;25.618;2023-03-01T05:34:42;3.03;;;1.05;;
74415;SDS011;62850;42.428;25.618;2023-03-01T05:37:09;3.08;;;1.10;;
74415;SDS011;62850;42.428;25.618;2023-03-01T05:39:34;2.75;;;1.15;;
74415;SDS011;62850;42.428;25.618;2023-03-01T05:42:00;3.30;;;1.48;;
74415;SDS011;62850;42.428;25.618;2023-03-01T05:44:26;3.00;;;1.35;;
74415;SDS011;62850;42.428;25.618;2023-03-01T05:46:52;2.40;;;1.23;;
74415;SDS011;62850;42.428;25.618;2023-03-01T05:49:18;2.97;;;1.33;;
74415;SDS011;62850;42.428;25.618;2023-03-01T05:51:48;3.95;;;1.50;;
74415;SDS011;62850;42.428;25.618;2023-03-01T05:54:15;3.55;;;1.40;;
74415;SDS011;62850;42.428;25.618;2023-03-01T05:56:41;4.00;;;1.60;;
74415;SDS011;62850;42.428;25.618;2023-03-01T05:59:06;3.65;;;1.42;;
74415;SDS011;62850;42.428;25.618;2023-03-01T06:01:32;3.63;;;1.40;;
74415;SDS011;62850;42.428;25.618;2023-03-01T06:03:58;3.83;;;1.33;;
74415;SDS011;62850;42.428;25.618;2023-03-01T06:06:24;3.17;;;1.45;;
74415;SDS011;62850;42.428;25.618;2023-03-01T06:08:50;4.00;;;1.30;;
74415;SDS011;62850;42.428;25.618;2023-03-01T06:11:15;3.15;;;1.40;;
74415;SDS011;62850;42.428;25.618;2023-03-01T06:13:42;5.82;;;1.65;;
74415;SDS011;62850;42.428;25.618;2023-03-01T06:16:08;3.30;;;1.48;;
74415;SDS011;62850;42.428;25.618;2023-03-01T06:18:34;5.60;;;1.85;;
74415;SDS011;62850;42.428;25.618;2023-03-01T06:20:59;4.20;;;1.77;;
74415;SDS011;62850;42.428;25.618;2023-03-01T06:23:25;6.05;;;1.60;;
74415;SDS011;62850;42.428;25.618;2023-03-01T06:25:50;3.42;;;1.50;;
74415;SDS011;62850;42.428;25.618;2023-03-01T06:28:16;5.15;;;1.85;;
74415;SDS011;62850;42.428;25.618;2023-03-01T06:30:41;4.43;;;1.90;;
74415;SDS011;62850;42.428;25.618;2023-03-01T06:33:07;5.45;;;2.22;;
74415;SDS011;62850;42.428;25.618;2023-03-01T06:35:33;4.80;;;1.95;;
74415;SDS011;62850;42.428;25.618;2023-03-01T06:37:59;4.85;;;2.22;;
74415;SDS011;62850;42.428;25.618;2023-03-01T06:40:26;4.65;;;2.00;;
74415;SDS011;62850;42.428;25.618;2023-03-01T06:42:52;6.45;;;1.75;;
74415;SDS011;62850;42.428;25.618;2023-03-01T06:45:18;5.43;;;1.70;;
74415;SDS011;62850;42.428;25.618;2023-03-01T06:47:44;4.82;;;2.05;;
74415;SDS011;62850;42.428;25.618;2023-03-01T06:50:10;5.18;;;1.85;;
74415;SDS011;62850;42.428;25.618;2023-03-01T06:52:36;3.72;;;1.55;;
74415;SDS011;62850;42.428;25.618;2023-03-01T06:55:02;4.43;;;1.73;;
74415;SDS011;62850;42.428;25.618;2023-03-01T06:57:28;6.18;;;1.65;;
74415;SDS011;62850;42.428;25.618;2023-03-01T06:59:54;3.75;;;1.65;;
74415;SDS011;62850;42.428;25.618;2023-03-01T07:02:19;11.35;;;2.30;;
74415;SDS011;62850;42.428;25.618;2023-03-01T07:04:45;4.22;;;1.80;;
74415;SDS011;62850;42.428;25.618;2023-03-01T07:07:10;4.13;;;1.70;;
74415;SDS011;62850;42.428;25.618;2023-03-01T07:09:36;4.00;;;1.50;;
74415;SDS011;62850;42.428;25.618;2023-03-01T07:12:01;3.50;;;1.58;;
74415;SDS011;62850;42.428;25.618;2023-03-01T07:14:27;3.80;;;1.80;;
74415;SDS011;62850;42.428;25.618;2023-03-01T07:16:53;4.78;;;2.15;;
74415;SDS011;62850;42.428;25.618;2023-03-01T07:19:19;4.10;;;1.80;;
74415;SDS011;62850;42.428;25.618;2023-03-01T07:21:45;4.45;;;2.30;;
74415;SDS011;62850;42.428;25.618;2023-03-01T07:24:10;5.18;;;2.05;;
74415;SDS011;62850;42.428;25.618;2023-03-01T07:26:35;4.60;;;2.17;;
74415;SDS011;62850;42.428;25.618;2023-03-01T07:29:02;5.78;;;2.30;;
74415;SDS011;62850;42.428;25.618;2023-03-01T07:31:30;6.03;;;2.28;;
74415;SDS011;62850;42.428;25.618;2023-03-01T07:33:55;5.10;;;2.13;;
74415;SDS011;62850;42.428;25.618;2023-03-01T07:36:21;4.65;;;1.80;;
74415;SDS011;62850;42.428;25.618;2023-03-01T07:38:47;4.18;;;1.50;;
74415;SDS011;62850;42.428;25.618;2023-03-01T07:41:12;3.85;;;1.73;;
74415;SDS011;62850;42.428;25.618;2023-03-01T07:43:38;5.15;;;2.00;;
74415;SDS011;62850;42.428;25.618;2023-03-01T07:46:03;5.00;;;2.20;;
74415;SDS011;62850;42.428;25.618;2023-03-01T07:48:29;5.20;;;2.25;;
74415;SDS011;62850;42.428;25.618;2023-03-01T07:51:03;5.53;;;2.53;;
74415;SDS011;62850;42.428;25.618;2023-03-01T07:53:30;4.63;;;2.13;;
74415;SDS011;62850;42.428;25.618;2023-03-01T07:58:35;6.88;;;2.75;;
74415;SDS011;62850;42.428;25.618;2023-03-01T08:01:03;5.72;;;2.67;;
74415;SDS011;62850;42.428;25.618;2023-03-01T08:03:29;6.47;;;2.78;;
74415;SDS011;62850;42.428;25.618;2023-03-01T08:05:55;6.50;;;2.63;;
74415;SDS011;62850;42.428;25.618;2023-03-01T08:08:20;6.18;;;2.58;;
74415;SDS011;62850;42.428;25.618;2023-03-01T08:10:46;6.70;;;2.58;;
74415;SDS011;62850;42.428;25.618;2023-03-01T08:13:12;8.15;;;2.40;;
74415;SDS011;62850;42.428;25.618;2023-03-01T08:15:37;6.70;;;2.30;;
74415;SDS011;62850;42.428;25.618;2023-03-01T08:18:03;4.88;;;1.83;;
74415;SDS011;62850;42.428;25.618;2023-03-01T08:20:28;4.35;;;2.00;;
74415;SDS011;62850;42.428;25.618;2023-03-01T08:22:54;4.13;;;2.00;;
74415;SDS011;62850;42.428;25.618;2023-03-01T08:25:19;6.78;;;1.92;;
74415;SDS011;62850;42.428;25.618;2023-03-01T08:27:45;5.50;;;2.00;;
74415;SDS011;62850;42.428;25.618;2023-03-01T08:30:10;6.18;;;2.05;;
74415;SDS011;62850;42.428;25.618;2023-03-01T08:32:39;5.30;;;2.40;;
74415;SDS011;62850;42.428;25.618;2023-03-01T08:35:05;5.57;;;2.55;;
74415;SDS011;62850;42.428;25.618;2023-03-01T08:37:30;4.85;;;2.10;;
74415;SDS011;62850;42.428;25.618;2023-03-01T08:39:59;5.55;;;2.28;;
74415;SDS011;62850;42.428;25.618;2023-03-01T08:42:25;6.35;;;2.40;;
74415;SDS011;62850;42.428;25.618;2023-03-01T08:44:51;6.75;;;2.30;;
74415;SDS011;62850;42.428;25.618;2023-03-01T08:47:17;6.30;;;2.13;;
74415;SDS011;62850;42.428;25.618;2023-03-01T08:49:42;5.05;;;1.90;;
74415;SDS011;62850;42.428;25.618;2023-03-01T08:52:08;6.45;;;2.20;;
74415;SDS011;62850;42.428;25.618;2023-03-01T08:54:33;4.32;;;1.80;;
74415;SDS011;62850;42.428;25.618;2023-03-01T08:57:00;7.97;;;2.00;;
74415;SDS011;62850;42.428;25.618;2023-03-01T08:59:27;5.63;;;2.55;;
74415;SDS011;62850;42.428;25.618;2023-03-01T09:01:54;4.32;;;1.67;;
74415;SDS011;62850;42.428;25.618;2023-03-01T09:04:19;4.78;;;1.83;;
74415;SDS011;62850;42.428;25.618;2023-03-01T09:06:45;5.00;;;2.10;;
74415;SDS011;62850;42.428;25.618;2023-03-01T09:09:12;5.45;;;2.15;;
74415;SDS011;62850;42.428;25.618;2023-03-01T09:11:40;5.47;;;2.30;;
74415;SDS011;62850;42.428;25.618;2023-03-01T09:14:06;4.45;;;2.05;;
74415;SDS011;62850;42.428;25.618;2023-03-01T09:16:32;5.45;;;2.47;;
74415;SDS011;62850;42.428;25.618;2023-03-01T09:19:00;8.65;;;2.40;;
74415;SDS011;62850;42.428;25.618;2023-03-01T09:21:27;6.53;;;2.53;;
74415;SDS011;62850;42.428;25.618;2023-03-01T09:23:53;5.47;;;2.50;;
74415;SDS011;62850;42.428;25.618;2023-03-01T09:26:21;6.15;;;2.40;;
74415;SDS011;62850;42.428;25.618;2023-03-01T09:28:48;4.18;;;1.73;;
74415;SDS011;62850;42.428;25.618;2023-03-01T09:31:15;4.65;;;2.10;;
74415;SDS011;62850;42.428;25.618;2023-03-01T09:33:45;5.22;;;2.25;;
74415;SDS011;62850;42.428;25.618;2023-03-01T09:36:13;7.55;;;3.00;;
74415;SDS011;62850;42.428;25.618;2023-03-01T09:38:42;5.10;;;2.20;;
74415;SDS011;62850;42.428;25.618;2023-03-01T09:41:18;6.18;;;2.45;;
74415;SDS011;62850;42.428;25.618;2023-03-01T09:43:57;5.93;;;2.35;;
74415;SDS011;62850;42.428;25.618;2023-03-01T09:46:28;6.15;;;2.50;;
74415;SDS011;62850;42.428;25.618;2023-03-01T09:49:05;6.35;;;2.25;;
74415;SDS011;62850;42.428;25.618;2023-03-01T09:51:37;9.48;;;2.58;;
74415;SDS011;62850;42.428;25.618;2023-03-01T09:54:02;8.10;;;2.55;;
74415;SDS011;62850;42.428;25.618;2023-03-01T09:56:32;10.27;;;2.70;;
74415;SDS011;62850;42.428;25.618;2023-03-01T10:04:28;5.88;;;2.40;;
74415;SDS011;62850;42.428;25.618;2023-03-01T10:09:40;8.73;;;3.17;;
74415;SDS011;62850;42.428;25.618;2023-03-01T10:12:18;9.15;;;3.35;;
74415;SDS011;62850;42.428;25.618;2023-03-01T10:14:51;6.75;;;3.10;;
74415;SDS011;62850;42.428;25.618;2023-03-01T10:17:27;8.10;;;3.30;;
74415;SDS011;62850;42.428;25.618;2023-03-01T10:22:48;4.95;;;2.20;;
74415;SDS011;62850;42.428;25.618;2023-03-01T10:25:24;6.20;;;2.75;;
74415;SDS011;62850;42.428;25.618;2023-03-01T10:28:02;5.07;;;2.28;;
74415;SDS011;62850;42.428;25.618;2023-03-01T10:30:42;7.22;;;3.17;;
74415;SDS011;62850;42.428;25.618;2023-03-01T10:33:13;5.60;;;2.28;;
74415;SDS011;62850;42.428;25.618;2023-03-01T10:35:43;7.10;;;3.05;;
74415;SDS011;62850;42.428;25.618;2023-03-01T10:38:10;7.43;;;3.25;;
74415;SDS011;62850;42.428;25.618;2023-03-01T10:43:22;8.65;;;3.33;;
74415;SDS011;62850;42.428;25.618;2023-03-01T10:45:51;7.63;;;3.22;;
74415;SDS011;62850;42.428;25.618;2023-03-01T10:48:22;6.85;;;3.00;;
74415;SDS011;62850;42.428;25.618;2023-03-01T10:51:12;5.97;;;2.88;;
74415;SDS011;62850;42.428;25.618;2023-03-01T10:53:42;13.40;;;3.00;;
74415;SDS011;62850;42.428;25.618;2023-03-01T10:56:14;7.63;;;3.13;;
74415;SDS011;62850;42.428;25.618;2023-03-01T10:58:41;7.63;;;3.40;;
74415;SDS011;62850;42.428;25.618;2023-03-01T11:03:55;7.60;;;2.92;;
74415;SDS011;62850;42.428;25.618;2023-03-01T11:06:35;9.68;;;3.50;;
74415;SDS011;62850;42.428;25.618;2023-03-01T11:11:54;7.70;;;3.10;;
74415;SDS011;62850;42.428;25.618;2023-03-01T11:14:23;9.85;;;3.78;;
74415;SDS011;62850;42.428;25.618;2023-03-01T11:17:10;7.95;;;3.63;;
74415;SDS011;62850;42.428;25.618;2023-03-01T11:19:43;9.27;;;3.92;;
74415;SDS011;62850;42.428;25.618;2023-03-01T11:22:25;15.27;;;3.80;;
74415;SDS011;62850;42.428;25.618;2023-03-01T11:24:51;8.13;;;3.45;;
74415;SDS011;62850;42.428;25.618;2023-03-01T11:27:21;8.82;;;3.65;;
74415;SDS011;62850;42.428;25.618;2023-03-01T11:29:54;9.85;;;3.88;;
74415;SDS011;62850;42.428;25.618;2023-03-01T11:32:40;9.05;;;3.90;;
74415;SDS011;62850;42.428;25.618;2023-03-01T11:35:32;10.35;;;3.42;;
74415;SDS011;62850;42.428;25.618;2023-03-01T11:38:05;8.63;;;3.58;;
74415;SDS011;62850;42.428;25.618;2023-03-01T11:40:57;7.72;;;3.55;;
74415;SDS011;62850;42.428;25.618;2023-03-01T11:43:32;8.80;;;3.60;;
74415;SDS011;62850;42.428;25.618;2023-03-01T11:51:05;7.93;;;4.10;;
74415;SDS011;62850;42.428;25.618;2023-03-01T11:56:52;9.30;;;3.47;;
74415;SDS011;62850;42.428;25.618;2023-03-01T12:10:27;7.18;;;3.38;;
74415;SDS011;62850;42.428;25.618;2023-03-01T12:15:57;9.07;;;3.83;;
74415;SDS011;62850;42.428;25.618;2023-03-01T12:45:51;9.05;;;4.55;;
74415;SDS011;62850;42.428;25.618;2023-03-01T12:48:40;9.35;;;4.07;;
74415;SDS011;62850;42.428;25.618;2023-03-01T12:51:26;9.27;;;3.70;;
74415;SDS011;62850;42.428;25.618;2023-03-01T12:53:55;9.52;;;3.90;;
74415;SDS011;62850;42.428;25.618;2023-03-01T12:56:24;7.72;;;3.63;;
74415;SDS011;62850;42.428;25.618;2023-03-01T12:59:02;9.85;;;3.88;;
74415;SDS011;62850;42.428;25.618;2023-03-01T13:11:48;12.63;;;5.00;;
74415;SDS011;62850;42.428;25.618;2023-03-01T13:14:35;9.80;;;3.90;;
74415;SDS011;62850;42.428;25.618;2023-03-01T13:17:00;11.88;;;4.47;;
74415;SDS011;62850;42.428;25.618;2023-03-01T13:19:26;9.73;;;4.28;;
74415;SDS011;62850;42.428;25.618;2023-03-01T13:22:01;9.10;;;3.88;;
74415;SDS011;62850;42.428;25.618;2023-03-01T13:25:16;7.82;;;4.10;;
74415;SDS011;62850;42.428;25.618;2023-03-01T13:27:45;7.75;;;3.75;;
74415;SDS011;62850;42.428;25.618;2023-03-01T13:36:05;9.00;;;4.60;;
74415;SDS011;62850;42.428;25.618;2023-03-01T13:47:36;12.77;;;5.50;;
74415;SDS011;62850;42.428;25.618;2023-03-01T13:52:42;10.90;;;4.93;;
74415;SDS011;62850;42.428;25.618;2023-03-01T13:55:23;7.68;;;3.83;;
74415;SDS011;62850;42.428;25.618;2023-03-01T13:58:23;11.63;;;4.57;;
74415;SDS011;62850;42.428;25.618;2023-03-01T14:03:25;10.27;;;4.63;;
74415;SDS011;62850;42.428;25.618;2023-03-01T14:08:23;10.60;;;4.43;;
74415;SDS011;62850;42.428;25.618;2023-03-01T14:16:23;11.57;;;5.22;;
74415;SDS011;62850;42.428;25.618;2023-03-01T14:19:07;9.75;;;4.28;;
74415;SDS011;62850;42.428;25.618;2023-03-01T14:21:41;11.88;;;5.30;;
74415;SDS011;62850;42.428;25.618;2023-03-01T14:24:15;10.13;;;4.97;;
74415;SDS011;62850;42.428;25.618;2023-03-01T14:26:43;11.55;;;5.57;;
74415;SDS011;62850;42.428;25.618;2023-03-01T14:29:23;15.65;;;5.65;;
74415;SDS011;62850;42.428;25.618;2023-03-01T14:31:53;11.80;;;5.63;;
74415;SDS011;62850;42.428;25.618;2023-03-01T14:34:20;12.73;;;5.93;;
74415;SDS011;62850;42.428;25.618;2023-03-01T14:36:47;12.25;;;5.72;;
74415;SDS011;62850;42.428;25.618;2023-03-01T14:39:17;13.18;;;6.07;;
74415;SDS011;62850;42.428;25.618;2023-03-01T14:44:13;11.25;;;5.50;;
74415;SDS011;62850;42.428;25.618;2023-03-01T14:46:41;12.15;;;4.90;;
74415;SDS011;62850;42.428;25.618;2023-03-01T14:49:10;11.60;;;5.60;;
74415;SDS011;62850;42.428;25.618;2023-03-01T14:51:41;10.25;;;5.20;;
74415;SDS011;62850;42.428;25.618;2023-03-01T14:54:19;14.68;;;7.05;;
74415;SDS011;62850;42.428;25.618;2023-03-01T14:57:12;14.43;;;6.60;;
74415;SDS011;62850;42.428;25.618;2023-03-01T14:59:40;12.15;;;6.13;;
74415;SDS011;62850;42.428;25.618;2023-03-01T15:02:12;26.80;;;11.95;;
74415;SDS011;62850;42.428;25.618;2023-03-01T15:04:48;14.55;;;7.60;;
74415;SDS011;62850;42.428;25.618;2023-03-01T15:07:16;26.40;;;11.25;;
74415;SDS011;62850;42.428;25.618;2023-03-01T15:09:43;23.75;;;11.80;;
74415;SDS011;62850;42.428;25.618;2023-03-01T15:14:54;18.35;;;9.25;;
74415;SDS011;62850;42.428;25.618;2023-03-01T15:20:00;17.27;;;8.35;;
74415;SDS011;62850;42.428;25.618;2023-03-01T15:22:29;21.13;;;8.85;;
74415;SDS011;62850;42.428;25.618;2023-03-01T15:24:55;16.25;;;8.13;;
74415;SDS011;62850;42.428;25.618;2023-03-01T15:27:24;26.45;;;11.02;;
74415;SDS011;62850;42.428;25.618;2023-03-01T15:34:57;16.33;;;7.43;;
74415;SDS011;62850;42.428;25.618;2023-03-01T15:43:01;15.50;;;7.53;;
74415;SDS011;62850;42.428;25.618;2023-03-01T15:45:32;16.02;;;7.20;;
74415;SDS011;62850;42.428;25.618;2023-03-01T15:48:04;15.57;;;7.90;;
74415;SDS011;62850;42.428;25.618;2023-03-01T15:50:39;19.35;;;8.15;;
74415;SDS011;62850;42.428;25.618;2023-03-01T15:53:10;15.77;;;8.05;;
74415;SDS011;62850;42.428;25.618;2023-03-01T15:55:39;19.10;;;8.80;;
74415;SDS011;62850;42.428;25.618;2023-03-01T15:58:19;17.02;;;8.43;;
74415;SDS011;62850;42.428;25.618;2023-03-01T16:00:46;15.35;;;7.30;;
74415;SDS011;62850;42.428;25.618;2023-03-01T16:03:14;20.15;;;8.30;;
74415;SDS011;62850;42.428;25.618;2023-03-01T16:05:46;22.55;;;10.20;;
74415;SDS011;62850;42.428;25.618;2023-03-01T16:08:13;20.50;;;9.70;;
74415;SDS011;62850;42.428;25.618;2023-03-01T16:10:39;18.33;;;9.63;;
74415;SDS011;62850;42.428;25.618;2023-03-01T16:13:06;18.55;;;8.77;;
74415;SDS011;62850;42.428;25.618;2023-03-01T16:15:33;20.27;;;8.68;;
74415;SDS011;62850;42.428;25.618;2023-03-01T16:18:02;47.88;;;17.48;;
74415;SDS011;62850;42.428;25.618;2023-03-01T16:20:28;27.45;;;11.82;;
74415;SDS011;62850;42.428;25.618;2023-03-01T16:22:55;24.40;;;9.15;;
74415;SDS011;62850;42.428;25.618;2023-03-01T16:25:25;23.80;;;9.85;;
74415;SDS011;62850;42.428;25.618;2023-03-01T16:27:51;24.33;;;9.88;;
74415;SDS011;62850;42.428;25.618;2023-03-01T16:30:18;16.88;;;7.70;;
74415;SDS011;62850;42.428;25.618;2023-03-01T16:32:45;19.75;;;9.10;;
74415;SDS011;62850;42.428;25.618;2023-03-01T16:35:12;21.83;;;9.43;;
74415;SDS011;62850;42.428;25.618;2023-03-01T16:37:39;25.83;;;11.43;;
74415;SDS011;62850;42.428;25.618;2023-03-01T16:40:05;27.10;;;11.90;;
74415;SDS011;62850;42.428;25.618;2023-03-01T16:42:37;22.23;;;11.43;;
74415;SDS011;62850;42.428;25.618;2023-03-01T16:45:03;28.13;;;11.43;;
74415;SDS011;62850;42.428;25.618;2023-03-01T16:47:29;28.48;;;12.48;;
74415;SDS011;62850;42.428;25.618;2023-03-01T16:49:54;34.03;;;16.23;;
74415;SDS011;62850;42.428;25.618;2023-03-01T16:52:21;38.03;;;17.33;;
74415;SDS011;62850;42.428;25.618;2023-03-01T16:54:47;33.67;;;13.95;;
74415;SDS011;62850;42.428;25.618;2023-03-01T16:57:12;39.45;;;15.68;;
74415;SDS011;62850;42.428;25.618;2023-03-01T16:59:38;28.25;;;12.38;;
74415;SDS011;62850;42.428;25.618;2023-03-01T17:02:04;27.27;;;12.27;;
74415;SDS011;62850;42.428;25.618;2023-03-01T17:07:00;27.97;;;11.70;;
74415;SDS011;62850;42.428;25.618;2023-03-01T17:09:25;21.73;;;10.10;;
74415;SDS011;62850;42.428;25.618;2023-03-01T17:11:50;25.88;;;10.75;;
74415;SDS011;62850;42.428;25.618;2023-03-01T17:14:16;21.02;;;9.73;;
74415;SDS011;62850;42.428;25.618;2023-03-01T17:16:42;23.60;;;10.73;;
74415;SDS011;62850;42.428;25.618;2023-03-01T17:19:08;22.65;;;10.55;;